createdAt,value
2017-12-21T00:00:13.953Z,4.65
2017-12-21T00:02:39.846Z,4.66
2017-12-21T00:05:09.550Z,4.59
2017-12-21T00:07:35.441Z,4.62
2017-12-21T00:10:02.782Z,4.66
2017-12-21T00:12:28.726Z,4.61
2017-12-21T00:14:57.713Z,4.62
2017-12-21T00:17:23.583Z,4.64
2017-12-21T00:19:53.368Z,4.65
2017-12-21T00:22:31.452Z,4.71
2017-12-21T00:24:57.291Z,4.79
2017-12-21T00:27:23.133Z,4.90
2017-12-21T00:29:49.060Z,4.92
2017-12-21T00:32:14.896Z,5.02
2017-12-21T00:34:40.753Z,5.06
2017-12-21T00:37:06.625Z,5.07
2017-12-21T00:39:32.534Z,5.03
2017-12-21T00:41:58.399Z,5.07
2017-12-21T00:44:24.274Z,5.09
2017-12-21T00:46:50.161Z,5.12
2017-12-21T00:49:16.043Z,4.98
2017-12-21T00:51:43.200Z,5.00
2017-12-21T00:54:09.036Z,5.02
2017-12-21T00:56:37.959Z,5.00
2017-12-21T00:59:03.830Z,4.98
2017-12-21T01:01:32.720Z,5.05
2017-12-21T01:03:58.624Z,5.10
2017-12-21T01:06:24.455Z,5.08
2017-12-21T01:08:50.368Z,4.97
2017-12-21T01:11:16.231Z,4.97
2017-12-21T01:13:43.796Z,4.84
2017-12-21T01:16:09.648Z,4.78
2017-12-21T01:18:38.199Z,4.74
2017-12-21T01:21:04.033Z,4.65
2017-12-21T01:26:00.888Z,4.61
2017-12-21T01:28:28.333Z,4.60
2017-12-21T01:30:54.182Z,4.57
2017-12-21T01:33:22.543Z,4.55
2017-12-21T01:35:48.447Z,4.51
2017-12-21T01:38:17.368Z,4.58
2017-12-21T01:40:43.294Z,4.53
2017-12-21T01:43:09.181Z,4.58
2017-12-21T01:45:35.074Z,4.58
2017-12-21T01:48:00.980Z,4.54
2017-12-21T01:50:30.685Z,4.51
2017-12-21T01:52:56.542Z,4.53
2017-12-21T01:55:24.284Z,4.52
2017-12-21T01:57:50.168Z,4.49
2017-12-21T02:00:19.958Z,4.51
2017-12-21T02:02:45.858Z,4.54
2017-12-21T02:05:13.490Z,4.52
2017-12-21T02:07:39.347Z,4.53
2017-12-21T02:10:08.974Z,4.58
2017-12-21T02:12:34.830Z,4.63
2017-12-21T02:15:03.020Z,4.58
2017-12-21T02:17:28.959Z,4.56
2017-12-21T02:19:54.879Z,4.54
2017-12-21T02:22:21.600Z,4.60
2017-12-21T02:24:47.444Z,4.68
2017-12-21T02:27:14.896Z,4.69
2017-12-21T02:29:40.755Z,4.71
2017-12-21T02:32:09.645Z,4.79
2017-12-21T02:34:35.486Z,4.75
2017-12-21T02:37:05.380Z,4.77
2017-12-21T02:39:31.271Z,4.67
2017-12-21T02:42:00.202Z,4.63
2017-12-21T02:44:26.049Z,4.62
2017-12-21T02:46:55.149Z,4.67
2017-12-21T02:49:21.054Z,4.67
2017-12-21T02:51:48.832Z,4.70
2017-12-21T02:54:14.765Z,4.73
2017-12-21T02:56:40.609Z,4.78
2017-12-21T02:59:06.490Z,4.77
2017-12-21T03:01:32.363Z,4.74
2017-12-21T03:04:01.482Z,4.77
2017-12-21T03:06:27.411Z,4.86
2017-12-21T03:08:55.189Z,4.76
2017-12-21T03:11:21.085Z,4.70
2017-12-21T03:13:50.170Z,4.70
2017-12-21T03:16:16.061Z,4.70
2017-12-21T03:18:45.784Z,4.73
2017-12-21T03:21:11.702Z,4.69
2017-12-21T03:23:40.625Z,4.70
2017-12-21T03:26:06.494Z,4.65
2017-12-21T03:28:35.425Z,4.71
2017-12-21T03:31:01.284Z,4.69
2017-12-21T03:33:27.133Z,4.75
2017-12-21T03:35:52.986Z,4.80
2017-12-21T03:38:18.832Z,4.73
2017-12-21T03:40:45.399Z,4.75
2017-12-21T03:43:11.250Z,4.78
2017-12-21T03:45:40.246Z,4.74
2017-12-21T03:48:06.111Z,4.82
2017-12-21T03:50:35.681Z,4.79
2017-12-21T03:53:01.562Z,4.84
2017-12-21T03:55:30.569Z,4.83
2017-12-21T03:57:56.443Z,4.82
2017-12-21T04:00:25.247Z,4.82
2017-12-21T04:02:51.149Z,4.85
2017-12-21T04:05:19.950Z,4.79
2017-12-21T04:07:45.827Z,4.80
2017-12-21T04:10:11.653Z,4.76
2017-12-21T04:12:37.501Z,4.80
2017-12-21T04:15:03.348Z,4.79
2017-12-21T04:17:30.511Z,4.87
2017-12-21T04:19:56.378Z,4.86
2017-12-21T04:22:25.893Z,4.83
2017-12-21T04:24:51.749Z,4.87
2017-12-21T04:27:19.873Z,4.87
2017-12-21T04:29:45.727Z,4.90
2017-12-21T04:32:14.378Z,4.85
2017-12-21T04:34:40.252Z,4.82
2017-12-21T04:39:37.009Z,4.71
2017-12-21T04:42:04.531Z,4.63
2017-12-21T04:44:30.462Z,4.64
2017-12-21T04:46:56.335Z,4.70
2017-12-21T04:49:22.202Z,4.74
2017-12-21T04:51:48.063Z,4.72
2017-12-21T04:54:16.699Z,4.72
2017-12-21T04:56:42.574Z,4.79
2017-12-21T04:59:11.492Z,4.82
2017-12-21T05:01:37.371Z,4.84
2017-12-21T05:04:06.255Z,4.80
2017-12-21T05:06:32.129Z,4.86
2017-12-21T05:09:00.878Z,4.86
2017-12-21T05:11:26.770Z,4.88
2017-12-21T05:13:59.119Z,4.90
2017-12-21T05:16:24.980Z,4.90
2017-12-21T05:18:50.916Z,4.94
2017-12-21T05:21:16.771Z,4.89
2017-12-21T05:23:42.676Z,4.99
2017-12-21T05:26:08.528Z,4.98
2017-12-21T05:28:34.418Z,4.96
2017-12-21T05:31:01.757Z,4.94
2017-12-21T05:33:27.610Z,4.94
2017-12-21T05:35:56.468Z,4.94
2017-12-21T05:38:22.270Z,4.90
2017-12-21T05:40:52.132Z,4.92
2017-12-21T05:43:18.017Z,4.98
2017-12-21T05:45:46.920Z,4.96
2017-12-21T05:48:12.798Z,4.89
2017-12-21T05:50:41.845Z,4.91
2017-12-21T05:53:07.758Z,4.95
2017-12-21T05:55:35.517Z,4.92
2017-12-21T05:58:01.370Z,4.93
2017-12-21T06:00:27.318Z,4.99
2017-12-21T06:02:53.252Z,4.96
2017-12-21T06:05:19.105Z,4.93
2017-12-21T06:07:46.811Z,4.75
2017-12-21T06:10:12.731Z,4.81
2017-12-21T06:12:41.699Z,4.79
2017-12-21T06:15:07.544Z,4.81
2017-12-21T06:17:36.709Z,4.79
2017-12-21T06:20:02.644Z,4.84
2017-12-21T06:22:32.413Z,4.82
2017-12-21T06:24:58.284Z,4.83
2017-12-21T06:27:26.054Z,4.86
2017-12-21T06:29:51.896Z,4.90
2017-12-21T06:32:21.734Z,4.92
2017-12-21T06:34:47.595Z,4.92
2017-12-21T06:37:13.442Z,4.87
2017-12-21T06:39:39.491Z,4.88
2017-12-21T06:42:05.282Z,4.91
2017-12-21T06:44:32.474Z,4.94
2017-12-21T06:46:58.341Z,4.97
2017-12-21T06:49:27.197Z,4.95
2017-12-21T06:51:53.044Z,4.96
2017-12-21T06:54:22.124Z,4.97
2017-12-21T06:56:47.972Z,4.97
2017-12-21T06:59:16.867Z,5.03
2017-12-21T07:01:42.708Z,4.95
2017-12-21T07:04:12.537Z,5.08
2017-12-21T07:06:38.408Z,5.00
2017-12-21T07:09:07.374Z,5.03
2017-12-21T07:11:33.201Z,5.02
2017-12-21T07:13:59.008Z,5.04
2017-12-21T07:16:24.850Z,5.05
2017-12-21T07:18:50.657Z,5.03
2017-12-21T07:21:17.164Z,5.13
2017-12-21T07:23:43.000Z,5.11
2017-12-21T07:26:12.326Z,5.12
2017-12-21T07:28:38.169Z,5.18
2017-12-21T07:31:08.020Z,5.23
2017-12-21T07:33:33.821Z,5.28
2017-12-21T07:36:01.676Z,5.27
2017-12-21T07:38:27.507Z,5.32
2017-12-21T07:40:57.252Z,5.33
2017-12-21T07:43:23.119Z,5.41
2017-12-21T07:45:51.834Z,5.47
2017-12-21T07:48:17.655Z,5.55
2017-12-21T07:50:43.459Z,5.63
2017-12-21T07:53:09.344Z,5.73
2017-12-21T07:55:35.206Z,5.80
2017-12-21T07:58:02.738Z,5.84
2017-12-21T08:00:28.547Z,5.93
2017-12-21T08:02:57.493Z,5.81
2017-12-21T08:05:23.336Z,5.90
2017-12-21T08:07:53.317Z,5.90
2017-12-21T08:10:19.147Z,5.83
2017-12-21T08:12:48.122Z,5.79
2017-12-21T08:15:13.935Z,5.69
2017-12-21T08:17:43.016Z,5.69
2017-12-21T08:20:08.875Z,5.65
2017-12-21T08:22:36.635Z,5.56
2017-12-21T08:25:02.513Z,5.53
2017-12-21T08:27:28.350Z,5.49
2017-12-21T08:29:54.163Z,5.49
2017-12-21T08:32:20.024Z,5.51
2017-12-21T08:34:47.892Z,5.52
2017-12-21T08:37:13.710Z,5.53
2017-12-21T08:39:43.104Z,5.55
2017-12-21T08:42:08.972Z,5.50
2017-12-21T08:44:38.597Z,5.53
2017-12-21T08:47:04.432Z,5.50
2017-12-21T08:49:32.218Z,5.55
2017-12-21T08:51:58.077Z,5.56
2017-12-21T08:54:27.876Z,5.56
2017-12-21T08:56:53.760Z,5.50
2017-12-21T08:59:21.538Z,5.53
2017-12-21T09:01:47.344Z,5.54
2017-12-21T09:04:13.207Z,5.55
2017-12-21T09:06:39.058Z,5.55
2017-12-21T09:09:04.917Z,5.60
2017-12-21T09:11:33.833Z,5.67
2017-12-21T09:13:59.681Z,5.60
2017-12-21T09:16:29.384Z,5.62
2017-12-21T09:18:55.203Z,5.58
2017-12-21T09:21:23.440Z,5.58
2017-12-21T09:23:49.281Z,5.67
2017-12-21T09:26:17.524Z,5.70
2017-12-21T09:28:43.364Z,5.72
2017-12-21T09:31:12.429Z,5.80
2017-12-21T09:33:38.307Z,5.84
2017-12-21T09:36:08.087Z,5.89
2017-12-21T09:38:33.928Z,5.94
2017-12-21T09:40:59.850Z,5.96
2017-12-21T09:43:25.670Z,6.07
2017-12-21T09:45:51.556Z,6.11
2017-12-21T09:48:19.239Z,6.26
2017-12-21T09:50:45.080Z,6.31
2017-12-21T09:53:13.018Z,6.42
2017-12-21T09:55:38.866Z,6.55
2017-12-21T09:58:07.878Z,6.67
2017-12-21T10:00:33.748Z,6.68
2017-12-21T10:03:03.244Z,6.67
2017-12-21T10:05:29.103Z,6.78
2017-12-21T10:07:58.527Z,6.86
2017-12-21T10:10:24.330Z,6.82
2017-12-21T10:12:52.044Z,6.91
2017-12-21T10:15:17.853Z,6.92
2017-12-21T10:17:43.695Z,6.84
2017-12-21T10:20:09.529Z,6.78
2017-12-21T10:22:35.358Z,6.69
2017-12-21T10:25:04.539Z,6.64
2017-12-21T10:29:54.926Z,6.67
2017-12-21T10:32:20.782Z,6.61
2017-12-21T10:34:46.622Z,6.59
2017-12-21T10:37:12.521Z,6.64
2017-12-21T10:39:38.378Z,6.61
2017-12-21T10:42:04.241Z,6.54
2017-12-21T10:44:33.846Z,6.65
2017-12-21T10:46:59.726Z,6.70
2017-12-21T10:49:25.629Z,6.71
2017-12-21T10:51:51.501Z,6.77
2017-12-21T10:54:17.358Z,6.83
2017-12-21T10:56:44.941Z,6.82
2017-12-21T10:59:10.818Z,6.81
2017-12-21T11:01:40.351Z,6.84
2017-12-21T11:04:06.198Z,6.84
2017-12-21T11:06:35.221Z,6.89
2017-12-21T11:09:01.163Z,6.85
2017-12-21T11:11:30.067Z,6.88
2017-12-21T11:13:55.975Z,6.88
2017-12-21T11:16:23.168Z,6.85
2017-12-21T11:18:49.080Z,6.86
2017-12-21T11:21:17.742Z,6.92
2017-12-21T11:23:43.619Z,6.92
2017-12-21T11:26:09.628Z,6.95
2017-12-21T11:28:35.592Z,7.08
2017-12-21T11:31:02.795Z,7.07
2017-12-21T11:33:29.921Z,7.11
2017-12-21T11:35:55.753Z,7.04
2017-12-21T11:38:25.264Z,6.10
2017-12-21T11:40:51.131Z,7.15
2017-12-21T11:43:20.122Z,7.00
2017-12-21T11:45:45.998Z,6.99
2017-12-21T11:48:15.190Z,7.01
2017-12-21T11:50:41.045Z,7.07
2017-12-21T11:53:19.827Z,7.09
2017-12-21T11:55:46.319Z,7.11
2017-12-21T11:58:12.234Z,7.14
2017-12-21T12:00:38.102Z,7.21
2017-12-21T12:03:03.995Z,7.25
2017-12-21T12:05:29.883Z,7.26
2017-12-21T12:07:55.787Z,7.24
2017-12-21T12:10:21.671Z,7.24
2017-12-21T12:12:47.530Z,7.12
2017-12-21T12:15:19.856Z,7.24
2017-12-21T12:17:45.762Z,7.26
2017-12-21T12:20:11.662Z,7.24
2017-12-21T12:22:37.558Z,7.27
2017-12-21T12:25:03.431Z,7.25
2017-12-21T12:27:29.298Z,7.28
2017-12-21T12:29:55.160Z,7.31
2017-12-21T12:32:21.034Z,7.34
2017-12-21T12:34:49.956Z,7.35
2017-12-21T12:40:22.853Z,7.33
2017-12-21T12:42:48.763Z,7.35
2017-12-21T12:45:14.671Z,7.33
2017-12-21T12:47:40.532Z,7.34
2017-12-21T12:50:06.408Z,7.39
2017-12-21T12:52:32.331Z,7.43
2017-12-21T12:54:58.214Z,7.39
2017-12-21T12:57:24.098Z,7.31
2017-12-21T12:59:50.778Z,7.24
2017-12-21T13:02:25.407Z,7.18
2017-12-21T13:04:51.275Z,7.15
2017-12-21T13:07:17.221Z,7.12
2017-12-21T13:09:43.077Z,7.08
2017-12-21T13:12:08.968Z,7.10
2017-12-21T13:14:34.833Z,7.09
2017-12-21T13:17:00.669Z,7.10
2017-12-21T13:19:26.575Z,7.09
2017-12-21T13:21:52.444Z,7.03
2017-12-21T13:24:25.871Z,7.00
2017-12-21T13:26:51.760Z,6.92
2017-12-21T13:29:17.614Z,6.93
2017-12-21T13:31:43.493Z,6.91
2017-12-21T13:34:09.324Z,6.88
2017-12-21T13:36:35.189Z,6.89
2017-12-21T13:39:01.574Z,6.87
2017-12-21T13:41:27.493Z,6.91
2017-12-21T13:43:53.320Z,6.85
2017-12-21T13:46:41.388Z,6.85
2017-12-21T13:49:07.699Z,6.83
2017-12-21T13:51:33.599Z,6.83
2017-12-21T13:53:59.490Z,6.83
2017-12-21T13:56:25.366Z,6.76
2017-12-21T13:58:51.529Z,6.77
2017-12-21T14:01:17.432Z,6.74
2017-12-21T14:03:43.336Z,6.74
2017-12-21T14:06:09.193Z,6.77
2017-12-21T14:08:36.923Z,6.78
2017-12-21T14:11:02.843Z,6.78
2017-12-21T14:13:28.765Z,6.85
2017-12-21T14:15:54.652Z,6.86
2017-12-21T14:18:20.493Z,6.89
2017-12-21T14:20:46.401Z,6.97
2017-12-21T14:23:12.679Z,6.99
2017-12-21T14:25:38.618Z,6.95
2017-12-21T14:28:19.013Z,6.98
2017-12-21T14:30:44.918Z,7.03
2017-12-21T14:33:10.805Z,7.08
2017-12-21T14:35:36.664Z,7.05
2017-12-21T14:38:02.529Z,6.95
2017-12-21T14:40:28.422Z,6.99
2017-12-21T14:42:54.299Z,6.84
2017-12-21T14:45:20.219Z,6.92
2017-12-21T14:47:46.252Z,6.95
2017-12-21T14:50:22.311Z,6.91
2017-12-21T14:52:48.198Z,6.84
2017-12-21T14:55:14.068Z,6.84
2017-12-21T14:57:39.941Z,6.80
2017-12-21T15:00:05.857Z,6.78
2017-12-21T15:02:31.690Z,6.75
2017-12-21T15:04:57.621Z,6.79
2017-12-21T15:07:23.627Z,6.86
2017-12-21T15:09:49.472Z,6.84
2017-12-21T15:12:24.196Z,6.84
2017-12-21T15:14:50.048Z,6.80
2017-12-21T15:17:15.983Z,6.84
2017-12-21T15:19:41.850Z,6.84
2017-12-21T15:22:07.700Z,6.92
2017-12-21T15:24:33.639Z,6.89
2017-12-21T15:26:59.484Z,6.96
2017-12-21T15:29:25.309Z,7.00
2017-12-21T15:31:51.184Z,7.05
2017-12-21T15:34:17.070Z,7.12
2017-12-21T15:36:42.930Z,7.17
2017-12-21T15:39:09.611Z,7.18
2017-12-21T15:41:35.554Z,7.21
2017-12-21T15:44:01.430Z,7.21
2017-12-21T15:46:27.279Z,7.23
2017-12-21T15:48:53.148Z,7.20
2017-12-21T15:51:19.090Z,7.20
2017-12-21T15:54:00.438Z,7.27
2017-12-21T15:56:26.301Z,7.30
2017-12-21T15:58:52.211Z,7.18
2017-12-21T16:01:18.089Z,7.21
2017-12-21T16:03:43.998Z,7.18
2017-12-21T16:06:09.885Z,7.19
2017-12-21T16:08:35.794Z,7.15
2017-12-21T16:11:01.721Z,7.12
2017-12-21T16:13:27.605Z,7.13
2017-12-21T16:15:53.507Z,7.09
2017-12-21T16:18:19.436Z,7.07
2017-12-21T16:20:45.329Z,7.08
2017-12-21T16:23:11.228Z,7.11
2017-12-21T16:25:37.104Z,7.17
2017-12-21T16:28:02.949Z,7.16
2017-12-21T16:30:28.857Z,7.25
2017-12-21T16:32:54.769Z,7.26
2017-12-21T16:35:22.797Z,7.28
2017-12-21T16:37:48.661Z,7.25
2017-12-21T16:40:14.783Z,7.31
2017-12-21T16:42:40.663Z,7.30
2017-12-21T16:45:06.522Z,7.32
2017-12-21T16:47:32.477Z,7.26
2017-12-21T16:49:58.329Z,7.18
2017-12-21T16:52:24.227Z,7.13
2017-12-21T16:54:50.096Z,7.13
2017-12-21T16:57:16.218Z,7.18
2017-12-21T16:59:42.125Z,7.21
2017-12-21T17:02:08.019Z,7.27
2017-12-21T17:04:33.945Z,7.24
2017-12-21T17:06:59.806Z,7.29
2017-12-21T17:09:25.723Z,7.26
2017-12-21T17:11:51.634Z,7.27
2017-12-21T17:14:17.532Z,7.27
2017-12-21T17:16:43.407Z,7.16
2017-12-21T17:19:12.734Z,7.16
2017-12-21T17:21:38.627Z,7.20
2017-12-21T17:24:04.598Z,7.18
2017-12-21T17:26:30.529Z,7.10
2017-12-21T17:28:56.432Z,7.09
2017-12-21T17:31:22.348Z,7.08
2017-12-21T17:33:48.304Z,7.13
2017-12-21T17:36:14.201Z,7.06
2017-12-21T17:38:40.087Z,7.09
2017-12-21T17:41:12.816Z,7.04
2017-12-21T17:43:40.515Z,6.86
2017-12-21T17:46:06.488Z,7.06
2017-12-21T17:48:32.378Z,7.03
2017-12-21T17:50:58.338Z,7.02
2017-12-21T17:53:24.269Z,7.06
2017-12-21T17:55:50.178Z,7.07
2017-12-21T17:58:16.057Z,7.09
2017-12-21T18:00:42.113Z,7.10
2017-12-21T18:03:08.072Z,7.12
2017-12-21T18:05:37.975Z,7.11
2017-12-21T18:08:03.874Z,7.16
2017-12-21T18:10:29.759Z,7.20
2017-12-21T18:12:55.628Z,7.16
2017-12-21T18:15:21.530Z,7.22
2017-12-21T18:17:48.087Z,7.27
2017-12-21T18:20:14.002Z,7.31
2017-12-21T18:22:42.913Z,7.31
2017-12-21T18:25:08.910Z,7.37
2017-12-21T18:27:38.169Z,7.38
2017-12-21T18:30:04.177Z,7.38
2017-12-21T18:32:33.213Z,7.38
2017-12-21T18:34:59.133Z,7.38
2017-12-21T18:37:28.568Z,7.43
2017-12-21T18:39:54.491Z,7.46
2017-12-21T18:42:22.217Z,7.41
2017-12-21T18:44:48.077Z,7.37
2017-12-21T18:47:14.408Z,7.33
2017-12-21T18:49:40.372Z,7.28
2017-12-21T18:52:06.238Z,7.29
2017-12-21T18:54:35.294Z,7.25
2017-12-21T18:57:01.193Z,7.29
2017-12-21T18:59:28.133Z,7.29
2017-12-21T19:01:54.054Z,7.30
2017-12-21T19:04:22.858Z,7.27
2017-12-21T19:06:48.786Z,7.28
2017-12-21T19:09:18.226Z,7.30
2017-12-21T19:11:44.140Z,7.30
2017-12-21T19:14:13.157Z,7.25
2017-12-21T19:16:39.127Z,7.27
2017-12-21T19:19:08.368Z,7.30
2017-12-21T19:21:34.283Z,7.32
2017-12-21T19:24:01.902Z,7.33
2017-12-21T19:26:27.937Z,7.31
2017-12-21T19:28:53.851Z,7.34
2017-12-21T19:31:19.711Z,7.29
2017-12-21T19:33:45.565Z,7.35
2017-12-21T19:36:13.183Z,7.34
2017-12-21T19:38:39.109Z,7.32
2017-12-21T19:41:07.840Z,7.29
2017-12-21T19:43:33.721Z,7.26
2017-12-21T19:46:04.487Z,7.21
2017-12-21T19:48:30.394Z,7.23
2017-12-21T19:50:59.453Z,7.19
2017-12-21T19:53:25.382Z,7.23
2017-12-21T19:55:52.403Z,7.25
2017-12-21T19:58:18.296Z,7.29
2017-12-21T20:00:44.206Z,7.29
2017-12-21T20:03:10.114Z,7.34
2017-12-21T20:05:35.993Z,7.38
2017-12-21T20:08:05.561Z,7.42
2017-12-21T20:10:31.442Z,7.47
2017-12-21T20:13:00.524Z,7.44
2017-12-21T20:15:26.399Z,7.40
2017-12-21T20:17:53.467Z,7.39
2017-12-21T20:20:19.491Z,7.37
2017-12-21T20:22:49.221Z,7.41
2017-12-21T20:25:15.729Z,7.39
2017-12-21T20:27:42.878Z,7.37
2017-12-21T20:30:08.742Z,7.41
2017-12-21T20:32:37.837Z,7.42
2017-12-21T20:35:03.732Z,7.39
2017-12-21T20:37:29.611Z,7.40
2017-12-21T20:39:55.541Z,7.45
2017-12-21T20:42:21.420Z,7.51
2017-12-21T20:44:51.354Z,7.53
2017-12-21T20:47:18.083Z,7.53
2017-12-21T20:49:50.355Z,7.57
2017-12-21T20:52:16.262Z,7.56
2017-12-21T20:54:42.172Z,7.56
2017-12-21T20:57:08.159Z,7.56
2017-12-21T20:59:34.074Z,7.55
2017-12-21T21:01:59.995Z,7.37
2017-12-21T21:04:28.340Z,7.56
2017-12-21T21:06:54.295Z,7.61
2017-12-21T21:09:24.368Z,7.63
2017-12-21T21:11:56.899Z,7.66
2017-12-21T21:14:22.743Z,7.66
2017-12-21T21:16:48.763Z,7.69
2017-12-21T21:19:14.650Z,7.67
2017-12-21T21:21:40.580Z,7.69
2017-12-21T21:24:06.466Z,7.67
2017-12-21T21:26:32.354Z,7.69
2017-12-21T21:28:58.264Z,7.64
2017-12-21T21:31:24.188Z,7.62
2017-12-21T21:33:58.372Z,7.62
2017-12-21T21:36:24.226Z,7.64
2017-12-21T21:38:50.310Z,7.64
2017-12-21T21:41:16.306Z,7.69
2017-12-21T21:43:42.178Z,7.71
2017-12-21T21:46:08.381Z,7.72
2017-12-21T21:48:34.263Z,7.67
2017-12-21T21:51:00.184Z,7.74
2017-12-21T21:53:26.102Z,7.78
2017-12-21T21:55:51.975Z,7.80
2017-12-21T21:58:21.487Z,7.82
2017-12-21T22:00:47.440Z,7.88
2017-12-21T22:03:16.611Z,7.95
2017-12-21T22:05:42.527Z,7.96
2017-12-21T22:08:09.417Z,7.91
2017-12-21T22:10:35.334Z,7.98
2017-12-21T22:13:04.293Z,8.01
2017-12-21T22:15:33.418Z,8.02
2017-12-21T22:17:59.420Z,8.05
2017-12-21T22:20:25.376Z,8.08
2017-12-21T22:22:53.731Z,8.04
2017-12-21T22:25:19.577Z,8.05
2017-12-21T22:27:45.458Z,8.04
2017-12-21T22:30:11.315Z,8.06
2017-12-21T22:32:37.164Z,8.01
2017-12-21T22:35:06.719Z,8.02
2017-12-21T22:37:36.449Z,8.02
2017-12-21T22:40:02.335Z,7.98
2017-12-21T22:42:28.236Z,7.89
2017-12-21T22:44:54.985Z,7.77
2017-12-21T22:47:21.333Z,7.67
2017-12-21T22:49:50.263Z,7.59
2017-12-21T22:52:16.167Z,7.52
2017-12-21T22:54:45.630Z,7.49
2017-12-21T22:57:11.544Z,7.50
2017-12-21T22:59:40.568Z,7.52
2017-12-21T23:02:06.477Z,7.50
2017-12-21T23:04:32.366Z,7.49
2017-12-21T23:06:58.278Z,7.46
2017-12-21T23:09:24.201Z,7.49
2017-12-21T23:11:51.298Z,7.25
2017-12-21T23:14:17.179Z,7.43
2017-12-21T23:16:46.690Z,7.38
2017-12-21T23:19:16.271Z,7.41
2017-12-21T23:21:42.231Z,7.37
2017-12-21T23:24:08.080Z,7.41
2017-12-21T23:26:34.861Z,7.40
2017-12-21T23:29:00.764Z,7.37
2017-12-21T23:31:30.207Z,7.36
2017-12-21T23:33:56.256Z,7.34
2017-12-21T23:36:26.003Z,7.34
2017-12-21T23:38:51.841Z,7.36
2017-12-21T23:41:17.833Z,7.37
2017-12-21T23:43:43.720Z,7.41
2017-12-21T23:46:09.643Z,7.42
2017-12-21T23:48:36.461Z,7.40
2017-12-21T23:51:02.391Z,7.44
2017-12-21T23:53:32.257Z,7.43
2017-12-21T23:55:58.183Z,7.39
2017-12-21T23:58:27.228Z,7.34
